Time;durP1;ratioP1;P1;durP2;ratioP2;P2;SDS_P1;SDS_P2;PMS_P1;PMS_P2;Temp;Humidity;BMP_temperature;BMP_pressure;BME280_temperature;BME280_humidity;BME280_pressure;Samples;Min_cycle;Max_cycle;Signal;HPM_P1;HPM_P2
2022/08/27 00:01:59;;;;;;;1999.90;999.90;;;;;;;19.19;97.97;98415.81;4164716;28;20274;-53
2022/08/27 00:04:01;;;;;;;1999.90;999.90;;;;;;;19.18;97.89;98414.16;4166564;28;20213;-55
2022/08/27 00:06:03;;;;;;;1999.90;999.90;;;;;;;19.10;98.82;98421.25;4199552;28;20615;-55
2022/08/27 00:08:09;;;;;;;1999.90;999.90;;;;;;;19.16;98.68;98421.94;4201052;28;20254;-53
2022/08/27 00:10:16;;;;;;;1999.90;999.90;;;;;;;19.21;98.55;98430.22;4181660;28;20208;-54
2022/08/27 00:12:18;;;;;;;1999.90;999.90;;;;;;;19.12;98.52;98421.75;4168220;28;20212;-53
2022/08/27 00:14:20;;;;;;;1999.90;999.90;;;;;;;19.17;98.47;98429.16;4184330;28;20257;-53
2022/08/27 00:16:23;;;;;;;1999.90;999.90;;;;;;;19.11;98.86;98419.28;4168127;28;20711;-53
2022/08/27 00:18:25;;;;;;;1999.90;999.90;;;;;;;19.12;98.42;98421.75;4171660;28;20250;-54
2022/08/27 00:20:27;;;;;;;1999.90;999.90;;;;;;;19.16;98.61;98416.41;4170770;28;20215;-53
2022/08/27 00:22:29;;;;;;;1999.90;999.90;;;;;;;19.17;98.48;98418.06;4198390;28;20214;-55
2022/08/27 00:24:30;;;;;;;1999.90;999.90;;;;;;;19.20;97.98;98417.47;4168885;28;20288;-54
2022/08/27 00:26:33;;;;;;;1999.90;999.90;;;;;;;19.20;98.00;98417.47;4170685;28;20642;-54
2022/08/27 00:28:35;;;;;;;1999.90;999.90;;;;;;;19.22;97.80;98421.59;4181263;28;20251;-53
2022/08/27 00:30:38;;;;;;;1999.90;999.90;;;;;;;19.20;98.14;98417.47;4169114;28;20969;-53
2022/08/27 00:32:41;;;;;;;1999.90;999.90;;;;;;;19.16;98.49;98421.94;4170695;28;20258;-54
2022/08/27 00:34:42;;;;;;;1999.90;999.90;;;;;;;19.17;98.64;98421.66;4170434;28;20321;-55
2022/08/27 00:36:44;;;;;;;1999.90;999.90;;;;;;;19.17;98.50;98418.06;4200769;28;20219;-53
2022/08/27 00:38:49;;;;;;;1999.90;999.90;;;;;;;19.18;98.71;98417.75;4198054;28;20240;-54
2022/08/27 00:40:54;;;;;;;1999.90;999.90;;;;;;;19.18;98.58;98416.94;4181145;28;20203;-54
2022/08/27 00:42:57;;;;;;;1999.90;999.90;;;;;;;19.18;98.39;98414.16;4168164;28;20287;-54
2022/08/27 00:44:58;;;;;;;1999.90;999.90;;;;;;;19.19;98.30;98411.06;4174964;28;20772;-54
2022/08/27 00:47:03;;;;;;;1999.90;999.90;;;;;;;19.23;98.16;98403.81;4174604;28;20232;-56
2022/08/27 00:49:47;;;;;;;1999.90;999.90;;;;;;;19.24;98.26;98411.00;4167155;28;21684;-53
2022/08/27 00:52:05;;;;;;;1999.90;999.90;;;;;;;19.17;99.02;98412.53;4123364;28;20202;-54
2022/08/27 00:54:08;;;;;;;1999.90;999.90;;;;;;;19.10;99.90;98415.69;4154197;28;20802;-54
2022/08/27 00:56:14;;;;;;;1999.90;999.90;;;;;;;19.15;99.42;98411.97;4197494;28;21522;-53
2022/08/27 00:58:26;;;;;;;1999.90;999.90;;;;;;;19.28;98.43;98408.44;4164637;28;20232;-53
2022/08/27 01:00:28;;;;;;;1999.90;999.90;;;;;;;19.21;98.54;98408.84;4165652;28;20293;-55
2022/08/27 01:02:30;;;;;;;1999.90;999.90;;;;;;;19.27;98.34;98415.09;4166274;28;20746;-54
2022/08/27 01:04:33;;;;;;;1999.90;999.90;;;;;;;19.20;98.57;98409.16;4198378;28;20294;-53
2022/08/27 01:06:36;;;;;;;1999.90;999.90;;;;;;;19.18;98.63;98409.41;4169151;28;20210;-53
2022/08/27 01:08:41;;;;;;;1999.90;999.90;;;;;;;19.21;98.43;98413.56;4200650;28;20195;-54
2022/08/27 01:10:44;;;;;;;1999.90;999.90;;;;;;;19.21;98.46;98419.13;4167546;28;20232;-54
2022/08/27 01:12:46;;;;;;;1999.90;999.90;;;;;;;19.20;98.64;98406.38;4199912;28;20766;-54
2022/08/27 01:14:55;;;;;;;1999.90;999.90;;;;;;;19.21;98.73;98413.56;4169728;28;20218;-55
2022/08/27 01:16:58;;;;;;;1999.90;999.90;;;;;;;19.26;98.69;98407.91;4197716;28;20227;-54
2022/08/27 01:19:00;;;;;;;1999.90;999.90;;;;;;;19.20;99.22;98398.88;4166896;28;20230;-53
2022/08/27 01:21:10;;;;;;;1999.90;999.90;;;;;;;19.16;99.33;98402.53;4167235;28;20269;-53
2022/08/27 01:23:21;;;;;;;1999.90;999.90;;;;;;;19.18;99.15;98395.53;4181323;28;20199;-54
2022/08/27 01:25:23;;;;;;;1999.90;999.90;;;;;;;19.18;98.91;98397.50;4182824;28;20215;-55
2022/08/27 01:27:28;;;;;;;1999.90;992.08;;;;;;;19.19;98.37;98399.16;4179635;28;20227;-55
2022/08/27 01:29:30;;;;;;;1999.90;999.90;;;;;;;19.29;99.06;98398.97;4166663;28;20204;-55
2022/08/27 01:31:32;;;;;;;1999.90;996.08;;;;;;;19.27;98.76;98395.69;4165425;28;20213;-53
2022/08/27 01:33:34;;;;;;;1999.90;999.90;;;;;;;19.31;98.95;98391.19;4172382;28;20204;-54
2022/08/27 01:35:35;;;;;;;1999.90;999.90;;;;;;;19.35;98.46;98400.50;4155558;28;20927;-55
2022/08/27 01:37:42;;;;;;;1999.90;999.90;;;;;;;19.32;98.44;98401.94;4199567;28;20231;-53
2022/08/27 01:39:44;;;;;;;1999.90;999.90;;;;;;;19.25;98.78;98392.41;4167351;28;20219;-53
2022/08/27 01:41:48;;;;;;;1999.90;999.90;;;;;;;19.09;99.64;98407.66;4171960;28;20208;-55
2022/08/27 01:43:52;;;;;;;1999.90;999.90;;;;;;;19.14;99.53;98408.41;4169546;28;20262;-54
2022/08/27 01:45:54;;;;;;;1999.90;999.90;;;;;;;19.11;99.87;98414.56;4171764;28;20250;-54
2022/08/27 01:47:57;;;;;;;1999.90;999.90;;;;;;;19.14;99.68;98413.13;4176584;28;20232;-54
2022/08/27 01:49:59;;;;;;;1999.90;999.90;;;;;;;19.16;100.00;98417.22;4201263;28;20210;-53
2022/08/27 01:52:01;;;;;;;1999.90;999.90;;;;;;;19.18;99.43;98416.94;4173040;28;20330;-53
2022/08/27 01:54:02;;;;;;;1999.90;999.90;;;;;;;19.21;99.14;98419.13;4174457;28;20231;-53
2022/08/27 01:56:04;;;;;;;1999.90;999.90;;;;;;;19.22;99.26;98409.66;4197757;28;20241;-54
2022/08/27 01:58:07;;;;;;;1999.90;999.90;;;;;;;19.21;99.10;98416.34;4200044;28;20335;-53
2022/08/27 02:00:21;;;;;;;1999.90;999.90;;;;;;;19.32;98.51;98426.13;4167327;28;20258;-53
2022/08/27 02:02:23;;;;;;;1999.90;973.58;;;;;;;19.30;98.51;98412.53;4168821;28;20208;-54
2022/08/27 02:04:25;;;;;;;1999.90;998.42;;;;;;;19.26;98.85;98416.25;4171594;28;20204;-55
2022/08/27 02:07:04;;;;;;;1999.90;990.53;;;;;;;19.17;99.52;98418.88;4167216;28;20211;-53
2022/08/27 02:09:06;;;;;;;1999.90;993.92;;;;;;;19.25;99.31;98415.41;4180089;28;20204;-55
2022/08/27 02:11:08;;;;;;;1999.90;999.90;;;;;;;19.23;99.00;98420.44;4199983;28;20226;-55
2022/08/27 02:13:12;;;;;;;1999.90;999.90;;;;;;;19.25;99.16;98420.16;4173215;28;20267;-54
2022/08/27 02:15:14;;;;;;;1999.90;999.90;;;;;;;19.32;99.13;98415.00;4171814;28;20672;-56
2022/08/27 02:17:16;;;;;;;1999.90;999.90;;;;;;;19.31;98.77;98416.16;4172123;28;20728;-54
2022/08/27 02:19:17;;;;;;;1999.90;997.53;;;;;;;19.34;98.70;98412.75;4170122;28;20208;-55
2022/08/27 02:21:19;;;;;;;1999.90;995.42;;;;;;;19.31;98.94;98416.94;4182956;28;20215;-53
2022/08/27 02:23:21;;;;;;;1999.90;993.92;;;;;;;19.32;98.86;98412.25;4201987;28;20594;-53
2022/08/27 02:25:23;;;;;;;1999.90;999.90;;;;;;;19.32;99.22;98409.47;4171667;28;20568;-55
2022/08/27 02:27:24;;;;;;;1999.90;999.90;;;;;;;19.30;99.16;98411.69;4177741;28;20223;-54
2022/08/27 02:29:26;;;;;;;1999.90;973.03;;;;;;;19.31;99.22;98416.16;4184670;28;20207;-55
2022/08/27 02:31:28;;;;;;;1999.90;999.90;;;;;;;19.31;99.20;98407.81;4172570;28;20200;-53
2022/08/27 02:33:32;;;;;;;1999.90;999.90;;;;;;;19.40;99.30;98414.28;4171621;28;20291;-54
2022/08/27 02:35:37;;;;;;;1999.90;999.90;;;;;;;19.23;100.00;98411.28;4168970;28;20239;-54
2022/08/27 02:37:40;;;;;;;1999.90;999.90;;;;;;;19.15;100.00;98412.81;4200895;28;20262;-54
2022/08/27 02:39:42;;;;;;;1999.90;999.90;;;;;;;19.25;100.00;98409.06;4169774;28;20654;-54
2022/08/27 02:41:47;;;;;;;1999.90;999.90;;;;;;;19.24;100.00;98418.50;4168267;28;20650;-53
2022/08/27 02:43:49;;;;;;;1999.90;999.90;;;;;;;19.14;100.00;98413.13;4174351;28;20218;-52
2022/08/27 02:45:50;;;;;;;1999.90;999.90;;;;;;;19.10;100.00;98423.19;4174416;28;20242;-52
2022/08/27 02:47:52;;;;;;;1999.90;999.90;;;;;;;19.10;100.00;98421.25;4169565;28;20224;-54
2022/08/27 02:49:54;;;;;;;1999.90;999.90;;;;;;;19.13;100.00;98412.28;4183471;28;20208;-53
2022/08/27 02:51:56;;;;;;;1999.90;999.90;;;;;;;19.16;100.00;98419.16;4175176;28;20208;-53
2022/08/27 02:53:59;;;;;;;1999.90;999.90;;;;;;;19.13;100.00;98412.28;4184522;28;20242;-53
2022/08/27 02:56:03;;;;;;;1999.90;999.90;;;;;;;19.23;100.00;98414.06;4170074;28;20712;-53
2022/08/27 02:58:05;;;;;;;1999.90;999.90;;;;;;;19.20;100.00;98406.38;4170213;28;20228;-53
2022/08/27 03:00:11;;;;;;;1999.90;999.90;;;;;;;19.15;100.00;98410.03;4171407;28;20681;-53
2022/08/27 03:02:13;;;;;;;1999.90;999.90;;;;;;;19.18;100.00;98414.16;4169416;28;20286;-53
2022/08/27 03:04:17;;;;;;;1999.90;999.90;;;;;;;19.13;100.00;98414.25;4185132;28;20665;-54
2022/08/27 03:06:18;;;;;;;1999.90;999.90;;;;;;;19.15;100.00;98403.66;4174328;28;20208;-53
2022/08/27 03:08:20;;;;;;;1999.90;999.90;;;;;;;19.22;100.00;98410.50;4167285;28;20235;-54
2022/08/27 03:10:22;;;;;;;1999.90;999.90;;;;;;;19.24;100.00;98418.50;4172523;28;20630;-53
2022/08/27 03:12:23;;;;;;;1999.90;999.90;;;;;;;19.21;100.00;98414.41;4175895;28;20232;-54
2022/08/27 03:14:25;;;;;;;1999.90;999.90;;;;;;;19.20;100.00;98411.94;4175057;28;20591;-53
2022/08/27 03:16:27;;;;;;;1999.90;999.90;;;;;;;19.17;100.00;98406.97;4169243;28;20201;-53
2022/08/27 03:18:31;;;;;;;1999.90;999.90;;;;;;;19.15;100.00;98414.75;4166728;28;20204;-53
2022/08/27 03:20:33;;;;;;;1999.90;999.90;;;;;;;19.13;100.00;98417.03;4170476;28;20211;-53
2022/08/27 03:22:34;;;;;;;1999.90;999.90;;;;;;;19.17;100.00;98418.06;4201077;28;20203;-54
2022/08/27 03:24:36;;;;;;;1999.90;999.90;;;;;;;19.10;100.00;98417.63;4174571;28;20239;-53
2022/08/27 03:26:40;;;;;;;1999.90;999.90;;;;;;;19.21;100.00;98416.34;4173404;28;20697;-53
2022/08/27 03:28:42;;;;;;;1999.90;999.90;;;;;;;19.09;100.00;98410.44;4174510;28;20211;-54
2022/08/27 03:30:47;;;;;;;1999.90;999.90;;;;;;;19.05;100.00;98403.88;4199024;28;20212;-53
2022/08/27 03:32:50;;;;;;;1999.90;999.90;;;;;;;19.00;100.00;98407.56;4200587;28;20656;-53
2022/08/27 03:34:51;;;;;;;1999.90;999.90;;;;;;;18.94;100.00;98397.72;4203429;28;20214;-53
2022/08/27 03:36:53;;;;;;;1999.90;999.90;;;;;;;19.01;100.00;98397.28;4171111;28;20229;-54
2022/08/27 03:38:55;;;;;;;1999.90;999.90;;;;;;;19.00;100.00;98395.66;4167982;28;20201;-53
2022/08/27 03:40:57;;;;;;;1999.90;999.90;;;;;;;19.02;100.00;98393.38;4202075;28;20286;-54
2022/08/27 03:42:59;;;;;;;1999.90;999.90;;;;;;;19.05;100.00;98392.78;4170330;28;20434;-53
2022/08/27 03:45:01;;;;;;;1999.90;999.90;;;;;;;19.03;100.00;98395.84;4190237;28;20688;-53
2022/08/27 03:47:02;;;;;;;1999.90;999.90;;;;;;;19.10;100.00;98398.22;4169500;28;20665;-53
2022/08/27 03:49:05;;;;;;;1999.90;999.90;;;;;;;19.19;100.00;98399.16;4200112;28;20230;-53
2022/08/27 03:51:10;;;;;;;1999.90;999.90;;;;;;;19.09;100.00;98388.25;4170744;28;20232;-53
2022/08/27 03:53:13;;;;;;;1999.90;993.88;;;;;;;19.02;100.00;98383.13;4169983;28;20770;-53
2022/08/27 03:55:16;;;;;;;1999.90;999.90;;;;;;;19.02;100.00;98387.84;4185170;28;20764;-53
2022/08/27 03:57:17;;;;;;;1999.90;999.90;;;;;;;19.02;100.00;98393.38;4164287;28;20703;-54
2022/08/27 03:59:19;;;;;;;1999.90;999.90;;;;;;;18.97;100.00;98387.97;4201175;28;20490;-53
2022/08/27 04:01:21;;;;;;;1999.90;999.90;;;;;;;18.95;100.00;98381.88;4168565;28;20269;-54
2022/08/27 04:03:23;;;;;;;1999.90;999.90;;;;;;;18.91;100.00;98383.63;4169782;28;20234;-53
2022/08/27 04:05:24;;;;;;;1999.90;999.90;;;;;;;18.92;100.00;98376.94;4200605;28;20265;-54
2022/08/27 04:07:26;;;;;;;1999.90;999.90;;;;;;;18.91;100.00;98383.63;4200940;28;20347;-56
2022/08/27 04:09:28;;;;;;;1999.90;999.90;;;;;;;18.90;100.00;98368.09;4184049;28;20274;-54
2022/08/27 04:11:33;;;;;;;1999.90;999.90;;;;;;;18.91;100.00;98375.31;4170044;28;20204;-54
2022/08/27 04:13:35;;;;;;;1999.90;999.90;;;;;;;18.87;100.00;98363.19;4167069;28;20243;-55
2022/08/27 04:15:42;;;;;;;1999.90;999.90;;;;;;;18.85;100.00;98363.47;4171141;28;20244;-53
2022/08/27 04:17:44;;;;;;;1999.90;999.90;;;;;;;18.80;100.00;98368.31;4169493;28;20251;-53
2022/08/27 04:19:46;;;;;;;1999.90;999.90;;;;;;;18.76;100.00;98367.25;4168061;28;20601;-52
2022/08/27 04:21:49;;;;;;;1999.90;999.90;;;;;;;18.76;100.00;98373.66;4200980;28;20256;-53
2022/08/27 04:23:51;;;;;;;1999.90;999.90;;;;;;;18.80;100.00;98373.84;4160753;28;20212;-53
2022/08/27 04:25:53;;;;;;;1999.90;974.63;;;;;;;18.84;100.00;98377.66;4200459;28;20291;-52
2022/08/27 04:27:55;;;;;;;1999.90;999.90;;;;;;;18.73;100.00;98374.25;4175149;28;20228;-56
2022/08/27 04:29:58;;;;;;;1999.90;979.08;;;;;;;18.74;100.00;98380.63;4199736;28;20331;-52
2022/08/27 04:32:00;;;;;;;1999.90;999.90;;;;;;;18.71;100.00;98375.69;4168967;28;20212;-55
2022/08/27 04:34:03;;;;;;;1999.90;999.90;;;;;;;18.71;100.00;98382.06;4181835;28;20203;-55
2022/08/27 04:36:09;;;;;;;1999.90;999.90;;;;;;;18.77;100.00;98374.47;4175440;28;20706;-54
2022/08/27 04:38:10;;;;;;;1999.90;996.90;;;;;;;18.72;100.00;98388.44;4168682;28;20228;-53
2022/08/27 04:40:13;;;;;;;1999.90;982.95;;;;;;;18.71;100.00;98378.47;4186588;28;20208;-55
2022/08/27 04:42:17;;;;;;;1999.90;999.90;;;;;;;18.72;100.00;98382.88;4175418;28;20212;-53
2022/08/27 04:44:19;;;;;;;1999.90;999.90;;;;;;;18.70;100.00;98393.44;4166402;28;20220;-55
2022/08/27 04:46:32;;;;;;;1999.90;999.90;;;;;;;18.69;100.00;98389.03;4171316;28;20203;-54
2022/08/27 04:48:35;;;;;;;1999.90;918.85;;;;;;;18.65;100.00;98390.78;4170084;28;20212;-54
2022/08/27 04:50:43;;;;;;;1999.90;924.97;;;;;;;18.65;100.00;98399.09;4174142;28;20247;-55
2022/08/27 04:52:45;;;;;;;1999.90;996.13;;;;;;;18.67;100.00;98396.84;4166460;28;20234;-53
2022/08/27 04:54:48;;;;;;;1999.90;942.45;;;;;;;18.66;100.00;98406.28;4175289;28;20682;-53
2022/08/27 04:56:50;;;;;;;1999.90;963.60;;;;;;;18.64;100.00;98397.47;4175612;28;20599;-53
2022/08/27 04:58:52;;;;;;;1999.90;888.85;;;;;;;18.64;100.00;98400.22;4183894;28;20261;-53
2022/08/27 05:00:55;;;;;;;1999.90;986.28;;;;;;;18.71;100.00;98392.34;4182387;28;20212;-55
2022/08/27 05:02:58;;;;;;;1999.90;923.30;;;;;;;18.66;100.00;98400.75;4184171;28;20220;-53
2022/08/27 05:05:00;;;;;;;1999.90;948.40;;;;;;;18.69;100.00;98394.56;4168907;28;20204;-56
2022/08/27 05:07:02;;;;;;;1999.90;997.67;;;;;;;18.69;100.00;98405.66;4157443;28;20326;-53
2022/08/27 05:09:04;;;;;;;1999.90;889.53;;;;;;;18.68;100.00;98399.31;4166899;28;20212;-55
2022/08/27 05:11:12;;;;;;;1999.90;999.90;;;;;;;18.72;100.00;98399.53;4182270;28;20208;-54
2022/08/27 05:13:17;;;;;;;1999.90;933.38;;;;;;;18.69;100.00;98411.19;4166898;28;20314;-54
2022/08/27 05:15:19;;;;;;;1990.13;775.80;;;;;;;18.68;100.00;98404.84;4172747;28;20224;-53
2022/08/27 05:17:20;;;;;;;1999.90;846.45;;;;;;;18.71;100.00;98415.31;4175160;28;20227;-53
2022/08/27 05:19:22;;;;;;;1999.90;999.90;;;;;;;18.64;100.00;98417.66;4169271;28;20201;-53
2022/08/27 05:21:27;;;;;;;1999.90;937.80;;;;;;;18.65;100.00;98422.06;4197973;28;20199;-53
2022/08/27 05:23:28;;;;;;;1999.90;885.40;;;;;;;18.66;100.00;98417.38;4175164;28;20262;-54
2022/08/27 05:25:30;;;;;;;1999.90;994.17;;;;;;;18.68;100.00;98407.63;4167639;28;20192;-54
2022/08/27 05:27:32;;;;;;;1999.90;999.90;;;;;;;18.70;100.00;98407.31;4200931;28;20227;-53
2022/08/27 05:29:34;;;;;;;1999.90;999.90;;;;;;;18.69;100.00;98417.59;4197668;28;20260;-54
2022/08/27 05:31:35;;;;;;;1997.45;795.72;;;;;;;18.74;100.00;98413.88;4174092;28;20594;-55
2022/08/27 05:33:38;;;;;;;1999.90;999.90;;;;;;;18.77;100.00;98413.31;4168577;28;20212;-54
2022/08/27 05:35:41;;;;;;;1999.90;999.90;;;;;;;18.81;100.00;98419.84;4201735;28;20700;-54
2022/08/27 05:37:43;;;;;;;1999.90;999.90;;;;;;;18.80;100.00;98421.81;4175663;28;20254;-54
2022/08/27 05:39:45;;;;;;;1999.90;994.33;;;;;;;18.80;100.00;98423.75;4174946;28;20204;-54
2022/08/27 05:41:46;;;;;;;1999.90;999.90;;;;;;;18.80;100.00;98429.31;4198049;28;20761;-54
2022/08/27 05:43:48;;;;;;;1999.90;999.90;;;;;;;18.81;100.00;98425.41;4170340;28;20745;-53
2022/08/27 05:45:51;;;;;;;1999.90;999.90;;;;;;;18.84;100.00;98424.81;4167733;28;20586;-53
2022/08/27 05:47:53;;;;;;;1999.90;999.90;;;;;;;18.82;100.00;98418.72;4200767;28;20227;-55
2022/08/27 05:49:54;;;;;;;1999.90;997.15;;;;;;;18.84;100.00;98419.25;4174528;28;20208;-54
2022/08/27 05:51:56;;;;;;;1999.90;999.90;;;;;;;18.83;100.00;98423.13;4174664;28;20204;-54
2022/08/27 05:54:04;;;;;;;1999.90;975.42;;;;;;;18.56;100.00;98428.63;4199859;28;20592;-52
2022/08/27 05:56:14;;;;;;;1999.90;995.15;;;;;;;18.47;100.00;98419.38;4170978;28;20594;-53
2022/08/27 06:03:03;;;;;;;1999.90;999.90;;;;;;;18.69;100.00;98423.13;4171898;28;20212;-53
2022/08/27 06:05:05;;;;;;;1999.90;999.90;;;;;;;18.69;100.00;98422.28;4200772;28;20207;-53
2022/08/27 06:07:08;;;;;;;1999.90;999.90;;;;;;;18.71;100.00;98428.38;4171255;28;20270;-53
2022/08/27 06:09:11;;;;;;;1999.90;999.90;;;;;;;18.70;100.00;98429.47;4159182;28;21867;-53
2022/08/27 06:11:14;;;;;;;1999.90;999.90;;;;;;;18.79;100.00;98422.13;4169925;28;20751;-54
2022/08/27 06:13:17;;;;;;;1999.90;999.90;;;;;;;18.83;100.00;98423.13;4155725;28;20219;-54
2022/08/27 06:15:18;;;;;;;1999.90;999.90;;;;;;;18.85;100.00;98420.91;4188241;28;20732;-54
2022/08/27 06:17:20;;;;;;;1999.90;999.90;;;;;;;18.89;100.00;98425.53;4167834;28;20286;-53
2022/08/27 06:19:22;;;;;;;1999.90;999.90;;;;;;;18.92;100.00;98427.69;4156011;28;20702;-54
2022/08/27 06:21:24;;;;;;;1999.90;999.90;;;;;;;18.97;100.00;98412.91;4188127;28;20202;-54
2022/08/27 06:23:27;;;;;;;1999.90;999.90;;;;;;;19.05;100.00;98417.75;4171419;28;20211;-54
2022/08/27 06:25:31;;;;;;;1999.90;999.90;;;;;;;19.09;100.00;98413.22;4151935;28;20219;-53
2022/08/27 06:27:32;;;;;;;1999.90;999.90;;;;;;;19.09;100.00;98422.38;4153754;28;20286;-53
2022/08/27 06:29:34;;;;;;;1999.90;999.90;;;;;;;19.14;100.00;98424.22;4185901;28;20204;-52
2022/08/27 06:31:36;;;;;;;1999.90;999.90;;;;;;;19.16;100.00;98421.94;4169554;28;20671;-53
2022/08/27 06:33:42;;;;;;;1999.90;999.90;;;;;;;19.18;100.00;98422.50;4162461;28;20275;-54
2022/08/27 06:35:44;;;;;;;1999.90;999.90;;;;;;;19.17;100.00;98429.16;4151504;28;20269;-54
2022/08/27 06:37:46;;;;;;;1999.90;999.90;;;;;;;19.25;100.00;98431.25;4157014;28;20224;-53
2022/08/27 06:39:47;;;;;;;1999.90;999.90;;;;;;;19.32;100.00;98431.66;4160597;28;20231;-52
2022/08/27 06:41:49;;;;;;;1999.90;999.90;;;;;;;19.33;100.00;98433.31;4168682;28;20674;-53
2022/08/27 06:43:52;;;;;;;1999.90;999.90;;;;;;;19.32;100.00;98431.66;4186497;28;20208;-53
2022/08/27 06:45:53;;;;;;;1999.90;999.90;;;;;;;19.36;100.00;98432.69;4170164;28;20204;-54
2022/08/27 06:47:55;;;;;;;1999.90;999.90;;;;;;;19.38;100.00;98435.97;4160380;28;20649;-54
2022/08/27 06:49:58;;;;;;;1999.90;999.90;;;;;;;19.41;100.00;98430.63;4187511;28;20208;-52
2022/08/27 06:51:59;;;;;;;1999.90;999.90;;;;;;;19.39;100.00;98440.41;4186978;28;20626;-52
2022/08/27 06:54:05;;;;;;;1999.90;999.90;;;;;;;19.42;100.00;98442.53;4183555;28;20203;-53
2022/08/27 06:56:07;;;;;;;1999.90;999.90;;;;;;;19.41;100.00;98432.56;4155366;28;20764;-53
2022/08/27 06:58:09;;;;;;;1999.90;999.90;;;;;;;19.41;100.00;98438.97;4186535;28;20285;-54
2022/08/27 07:00:12;;;;;;;1999.90;999.90;;;;;;;19.42;100.00;98437.00;4153684;28;20217;-55
2022/08/27 07:02:13;;;;;;;1999.90;999.90;;;;;;;19.49;100.00;98442.94;4167980;28;20962;-55
2022/08/27 07:04:21;;;;;;;1999.90;999.90;;;;;;;19.45;100.00;98447.50;4151059;28;20296;-54
2022/08/27 07:06:34;;;;;;;1999.90;999.90;;;;;;;19.43;100.00;98438.63;4166752;28;20335;-52
2022/08/27 07:08:36;;;;;;;1999.90;999.90;;;;;;;19.42;100.00;98448.09;4155171;28;20909;-52
2022/08/27 07:10:37;;;;;;;1999.90;999.90;;;;;;;19.49;100.00;98448.50;4167643;28;20204;-51
2022/08/27 07:12:39;;;;;;;1999.90;999.90;;;;;;;19.44;100.00;98445.84;4156354;28;20208;-50
2022/08/27 07:14:41;;;;;;;1999.90;999.90;;;;;;;19.48;100.00;98444.91;4165571;28;20211;-55
2022/08/27 07:16:44;;;;;;;1999.90;999.90;;;;;;;19.55;100.00;98452.81;4154664;28;20232;-54
2022/08/27 07:18:50;;;;;;;1999.90;999.90;;;;;;;19.59;100.00;98449.09;4147575;28;20204;-54
2022/08/27 07:20:53;;;;;;;1999.90;999.90;;;;;;;19.73;100.00;98449.94;4180713;28;20677;-56
2022/08/27 07:22:57;;;;;;;1999.90;999.90;;;;;;;19.75;100.00;98446.84;4156565;28;20267;-53
2022/08/27 07:24:59;;;;;;;1999.90;999.90;;;;;;;19.79;100.00;98450.66;4154926;28;20885;-54
2022/08/27 07:27:01;;;;;;;1999.90;999.90;;;;;;;19.75;100.00;98447.66;4157986;28;20742;-53
2022/08/27 07:29:07;;;;;;;1999.90;999.90;;;;;;;19.72;99.89;98441.91;4146463;28;20205;-53
2022/08/27 07:31:12;;;;;;;1950.93;859.25;;;;;;;19.64;100.00;98450.97;4156211;28;20208;-53
2022/08/27 07:33:18;;;;;;;1999.90;931.55;;;;;;;19.63;99.97;98444.59;4155682;28;20706;-53
2022/08/27 07:35:20;;;;;;;1999.90;935.33;;;;;;;19.62;99.99;98444.91;4185197;28;20215;-53
2022/08/27 07:40:11;;;;;;;1999.90;958.92;;;;;;;19.54;100.00;98451.19;4141323;28;20241;-64
2022/08/27 07:44:35;;;;;;;1999.90;994.03;;;;;;;19.56;100.00;98466.41;4144732;28;20204;-64
2022/08/27 07:46:38;;;;;;;1999.90;999.90;;;;;;;19.51;100.00;98463.72;4111747;28;20230;-64
2022/08/27 07:48:43;;;;;;;1999.90;999.90;;;;;;;19.52;100.00;98467.34;4142018;28;20740;-64
2022/08/27 07:50:45;;;;;;;1999.90;999.90;;;;;;;19.57;100.00;98467.25;4158788;28;20208;-64
2022/08/27 07:52:47;;;;;;;1999.90;999.90;;;;;;;19.61;100.00;98469.09;4154803;28;20581;-65
2022/08/27 07:54:48;;;;;;;1999.90;999.90;;;;;;;19.67;100.00;98467.00;4156081;28;20950;-65
2022/08/27 07:56:50;;;;;;;1999.90;999.90;;;;;;;19.69;100.00;98471.13;4154658;28;20244;-64
2022/08/27 07:58:56;;;;;;;1999.90;988.58;;;;;;;19.68;100.00;98474.19;4137756;28;20249;-66
2022/08/27 08:00:58;;;;;;;1999.90;999.90;;;;;;;19.67;99.81;98472.56;4153761;28;20912;-65
2022/08/27 08:02:59;;;;;;;1999.90;979.30;;;;;;;19.63;99.95;98477.06;4135245;28;20722;-65
2022/08/27 08:05:01;;;;;;;1999.90;988.03;;;;;;;19.66;100.00;98476.47;4137794;28;20206;-65
2022/08/27 08:07:03;;;;;;;1999.90;999.90;;;;;;;19.71;100.00;98479.16;4155945;28;20205;-65
2022/08/27 08:09:05;;;;;;;1691.47;755.83;;;;;;;19.57;98.70;98473.59;4154246;28;20212;-65
2022/08/27 08:11:14;;;;;;;1999.90;999.90;;;;;;;19.65;99.39;98480.38;4154402;28;20209;-65
2022/08/27 08:13:16;;;;;;;1999.90;999.90;;;;;;;19.75;99.61;98481.00;4149053;28;20288;-64
2022/08/27 08:15:18;;;;;;;1999.90;999.90;;;;;;;19.82;99.91;98483.34;4157394;28;20905;-65
2022/08/27 08:17:20;;;;;;;1999.90;999.90;;;;;;;19.99;99.56;98486.31;4158781;28;20262;-64
2022/08/27 08:19:21;;;;;;;1999.90;999.90;;;;;;;20.01;99.57;98486.81;4158562;28;20743;-65
2022/08/27 08:21:23;;;;;;;1999.90;999.90;;;;;;;20.05;99.26;98485.06;4158095;28;20204;-64
2022/08/27 08:23:25;;;;;;;1999.90;999.90;;;;;;;20.08;98.97;98490.03;4158245;28;20214;-64
2022/08/27 08:25:27;;;;;;;1999.90;999.90;;;;;;;20.14;99.29;98488.78;4157164;28;20266;-64
2022/08/27 08:27:34;;;;;;;1999.90;867.40;;;;;;;20.04;99.13;98492.56;4138200;28;20307;-64
2022/08/27 08:29:36;;;;;;;1999.90;999.90;;;;;;;20.10;99.25;98493.34;4158018;28;20275;-64
2022/08/27 08:31:40;;;;;;;1999.90;999.90;;;;;;;20.11;98.95;98490.22;4156938;28;20856;-64
2022/08/27 08:33:42;;;;;;;1999.90;947.33;;;;;;;20.10;98.79;98493.34;4158839;28;20299;-65
2022/08/27 08:35:43;;;;;;;1999.90;966.03;;;;;;;20.10;98.55;98494.13;4157468;28;20490;-64
2022/08/27 08:37:45;;;;;;;1611.25;688.35;;;;;;;20.12;98.07;98497.41;4138919;28;20308;-65
2022/08/27 08:39:46;;;;;;;1342.93;597.08;;;;;;;20.08;97.92;98484.47;4141386;28;20723;-65
2022/08/27 08:41:54;;;;;;;1999.90;953.50;;;;;;;20.08;98.55;98492.81;4157221;28;20287;-65
2022/08/27 08:43:56;;;;;;;1397.88;605.95;;;;;;;20.11;97.81;98492.19;4139107;28;20228;-65
2022/08/27 08:46:06;;;;;;;1667.20;733.95;;;;;;;20.11;98.01;98492.19;4135988;28;20321;-64
2022/08/27 08:48:14;;;;;;;1940.50;850.30;;;;;;;20.09;97.61;98500.00;4156920;28;20263;-64
2022/08/27 08:50:19;;;;;;;1999.90;985.92;;;;;;;20.05;98.33;98491.47;4136533;28;20205;-64
2022/08/27 08:52:20;;;;;;;1952.55;855.17;;;;;;;20.04;98.48;98489.00;4135688;28;20264;-64
2022/08/27 08:54:32;;;;;;;1988.22;869.28;;;;;;;20.04;98.60;98489.78;4155918;28;20197;-64
2022/08/27 08:56:50;;;;;;;1999.90;961.95;;;;;;;20.09;98.25;98492.50;4135158;28;20225;-64
2022/08/27 08:59:07;;;;;;;1999.90;931.05;;;;;;;20.16;98.13;98497.63;4154190;28;20205;-64
2022/08/27 09:01:10;;;;;;;1999.90;924.13;;;;;;;20.25;97.96;98501.31;4136997;28;20295;-65
2022/08/27 09:03:13;;;;;;;1940.57;835.17;;;;;;;20.20;97.34;98509.75;4153964;28;20212;-65
2022/08/27 09:05:15;;;;;;;1999.90;999.90;;;;;;;20.34;97.23;98500.25;4137338;28;21078;-65
2022/08/27 09:07:32;;;;;;;1999.90;999.90;;;;;;;20.38;97.06;98512.38;4123225;28;20257;-65
2022/08/27 09:09:36;;;;;;;1983.32;890.45;;;;;;;20.44;96.92;98515.88;4155330;28;20247;-65
2022/08/27 09:11:47;;;;;;;1975.65;869.40;;;;;;;20.53;96.20;98508.44;4155016;28;20232;-65
2022/08/27 09:13:52;;;;;;;1985.88;857.17;;;;;;;20.59;96.02;98515.53;4155576;28;20224;-65
2022/08/27 09:15:59;;;;;;;1682.38;750.45;;;;;;;20.62;95.87;98520.44;4153044;28;20197;-65